Kohat Weather



Kohat's Current Weather

Temprature 33o haze

haze

Rain: 0 %

Min Temprature33o
Max Temprature33o
Humidity40
Wind Speed5.14 m/h
Sun Rise05:19:19
Sun Set19:02:05
Current Time: 08-May-2021 15:14:51
Lat/Lon: 33.582, 71.4493




Kohat's Geo Location



Kohat's Weather Forecast

Time Overall Temp Min Temp Max Temp Humidity Wind Speed Rain
08-May-2021 (Sat)
17:00:00 light rain 31.210 27.630 31.210 38 4.61 m/h 69 %
20:00:00 light rain 28.830 26.750 28.830 42 2.6 m/h 23 %
23:00:00 broken clouds 25.630 25.630 25.630 45 1.66 m/h 0 %
09-May-2021 (Sun)
02:00:00 clear sky 24.300 24.300 24.300 47 1.37 m/h 0 %
05:00:00 clear sky 23.570 23.570 23.570 47 1.3 m/h 0 %
08:00:00 clear sky 28.100 28.100 28.100 35 1.29 m/h 0 %
11:00:00 clear sky 32.430 32.430 32.430 27 1.91 m/h 0 %
14:00:00 clear sky 34.930 34.930 34.930 22 1.45 m/h 0 %
17:00:00 few clouds 34.470 34.470 34.470 23 2.29 m/h 0 %
20:00:00 broken clouds 30.460 30.460 30.460 32 1.26 m/h 0 %
23:00:00 broken clouds 29.100 29.100 29.100 33 0.9 m/h 0 %
10-May-2021 (Mon)
02:00:00 broken clouds 26.290 26.290 26.290 40 1.64 m/h 0 %
05:00:00 scattered clouds 24.330 24.330 24.330 47 0.24 m/h 0 %
08:00:00 scattered clouds 28.100 28.100 28.100 37 1.22 m/h 0 %
11:00:00 few clouds 32.180 32.180 32.180 28 1.12 m/h 0 %
14:00:00 scattered clouds 35.080 35.080 35.080 22 2.14 m/h 0 %
17:00:00 scattered clouds 35.440 35.440 35.440 20 1.06 m/h 0 %
20:00:00 few clouds 31.420 31.420 31.420 29 2.51 m/h 0 %
23:00:00 scattered clouds 28.920 28.920 28.920 35 2.58 m/h 0 %
11-May-2021 (Tue)
02:00:00 few clouds 27.610 27.610 27.610 35 2.02 m/h 0 %
05:00:00 clear sky 25.840 25.840 25.840 39 1.93 m/h 0 %
08:00:00 clear sky 29.770 29.770 29.770 30 1.74 m/h 0 %
11:00:00 few clouds 33.550 33.550 33.550 25 2.87 m/h 0 %
14:00:00 few clouds 36.010 36.010 36.010 21 2.67 m/h 0 %
17:00:00 few clouds 36.450 36.450 36.450 18 2.39 m/h 0 %
20:00:00 light rain 25.160 25.160 25.160 51 9.8 m/h 144 %
23:00:00 moderate rain 22.900 22.900 22.900 57 3.92 m/h 598 %
12-May-2021 (Wed)
02:00:00 overcast clouds 22.530 22.530 22.530 61 2.56 m/h 0 %
05:00:00 light rain 21.270 21.270 21.270 67 2 m/h 28 %
08:00:00 light rain 25.770 25.770 25.770 43 1.67 m/h 12 %
11:00:00 light rain 30.130 30.130 30.130 28 3.91 m/h 15 %
14:00:00 clear sky 32.500 32.500 32.500 23 4.49 m/h 0 %
17:00:00 few clouds 31.090 31.090 31.090 27 3.03 m/h 0 %
20:00:00 light rain 24.790 24.790 24.790 44 1.66 m/h 70 %
23:00:00 light rain 22.280 22.280 22.280 68 0.62 m/h 27 %
13-May-2021 (Thu)
02:00:00 broken clouds 22.000 22.000 22.000 69 0.98 m/h 0 %
05:00:00 light rain 21.160 21.160 21.160 73 0.84 m/h 48 %
08:00:00 light rain 23.550 23.550 23.550 61 1.74 m/h 20 %
11:00:00 scattered clouds 27.000 27.000 27.000 45 2.54 m/h 0 %
14:00:00 overcast clouds 28.950 28.950 28.950 36 2.52 m/h 0 %

Famous Cities (60)